sensor_id;sensor_type;location;lat;lon;timestamp;pressure;altitude;pressure_sealevel;temperature;humidity
24306;BME280;12423;48.768;8.850;2023-03-21T00:00:59;97191.59;;;9.26;100.00
24306;BME280;12423;48.768;8.850;2023-03-21T00:03:03;97197.88;;;9.25;100.00
24306;BME280;12423;48.768;8.850;2023-03-21T00:05:05;97192.66;;;9.23;100.00
24306;BME280;12423;48.768;8.850;2023-03-21T00:07:06;97184.66;;;9.23;100.00
24306;BME280;12423;48.768;8.850;2023-03-21T00:09:07;97186.13;;;9.16;100.00
24306;BME280;12423;48.768;8.850;2023-03-21T00:11:08;97183.59;;;9.15;100.00
24306;BME280;12423;48.768;8.850;2023-03-21T00:13:11;97182.13;;;9.22;100.00
24306;BME280;12423;48.768;8.850;2023-03-21T00:15:12;97183.94;;;9.21;100.00
24306;BME280;12423;48.768;8.850;2023-03-21T00:17:13;97180.31;;;9.22;100.00
24306;BME280;12423;48.768;8.850;2023-03-21T00:19:18;97178.97;;;9.17;100.00
24306;BME280;12423;48.768;8.850;2023-03-21T00:21:22;97180.56;;;9.19;100.00
24306;BME280;12423;48.768;8.850;2023-03-21T00:23:29;97174.41;;;9.19;100.00
24306;BME280;12423;48.768;8.850;2023-03-21T00:25:31;97176.06;;;9.20;100.00
24306;BME280;12423;48.768;8.850;2023-03-21T00:27:33;97171.97;;;9.16;100.00
24306;BME280;12423;48.768;8.850;2023-03-21T00:29:34;97170.84;;;9.18;100.00
24306;BME280;12423;48.768;8.850;2023-03-21T00:31:35;97174.41;;;9.19;100.00
24306;BME280;12423;48.768;8.850;2023-03-21T00:33:38;97166.50;;;9.17;100.00
24306;BME280;12423;48.768;8.850;2023-03-21T00:35:40;97174.41;;;9.19;100.00
24306;BME280;12423;48.768;8.850;2023-03-21T00:37:47;97166.88;;;9.13;100.00
24306;BME280;12423;48.768;8.850;2023-03-21T00:39:48;97165.03;;;9.13;100.00
24306;BME280;12423;48.768;8.850;2023-03-21T00:41:49;97163.22;;;9.14;100.00
24306;BME280;12423;48.768;8.850;2023-03-21T00:43:51;97166.38;;;9.08;100.00
24306;BME280;12423;48.768;8.850;2023-03-21T00:45:56;97157.16;;;9.00;100.00
24306;BME280;12423;48.768;8.850;2023-03-21T00:47:58;97152.94;;;8.98;100.00
24306;BME280;12423;48.768;8.850;2023-03-21T00:49:58;97157.16;;;9.00;100.00
24306;BME280;12423;48.768;8.850;2023-03-21T00:52:00;97151.59;;;9.03;100.00
24306;BME280;12423;48.768;8.850;2023-03-21T00:54:01;97151.22;;;9.08;100.00
24306;BME280;12423;48.768;8.850;2023-03-21T00:56:05;97148.44;;;9.10;100.00
24306;BME280;12423;48.768;8.850;2023-03-21T00:58:06;97147.84;;;9.06;100.00
24306;BME280;12423;48.768;8.850;2023-03-21T01:00:09;97147.38;;;9.01;100.00
24306;BME280;12423;48.768;8.850;2023-03-21T01:02:10;97146.72;;;8.97;100.00
24306;BME280;12423;48.768;8.850;2023-03-21T01:04:14;97138.25;;;8.92;100.00
24306;BME280;12423;48.768;8.850;2023-03-21T01:06:17;97139.84;;;8.95;100.00
24306;BME280;12423;48.768;8.850;2023-03-21T01:08:21;97135.34;;;8.95;100.00
24306;BME280;12423;48.768;8.850;2023-03-21T01:10:24;97133.53;;;8.96;100.00
24306;BME280;12423;48.768;8.850;2023-03-21T01:12:26;97122.88;;;8.96;100.00
24306;BME280;12423;48.768;8.850;2023-03-21T01:14:27;97127.13;;;8.98;100.00
24306;BME280;12423;48.768;8.850;2023-03-21T01:16:28;97132.34;;;9.00;100.00
24306;BME280;12423;48.768;8.850;2023-03-21T01:18:31;97124.47;;;8.98;100.00
24306;BME280;12423;48.768;8.850;2023-03-21T01:20:32;97120.34;;;8.94;100.00
24306;BME280;12423;48.768;8.850;2023-03-21T01:22:33;97124.31;;;8.89;100.00
24306;BME280;12423;48.768;8.850;2023-03-21T01:24:34;97131.47;;;8.88;100.00
24306;BME280;12423;48.768;8.850;2023-03-21T01:26:36;97125.66;;;8.83;100.00
24306;BME280;12423;48.768;8.850;2023-03-21T01:28:38;97125.16;;;8.89;100.00
24306;BME280;12423;48.768;8.850;2023-03-21T01:30:44;97126.28;;;8.87;100.00
24306;BME280;12423;48.768;8.850;2023-03-21T01:32:46;97131.47;;;8.88;100.00
24306;BME280;12423;48.768;8.850;2023-03-21T01:34:47;97130.25;;;8.81;100.00
24306;BME280;12423;48.768;8.850;2023-03-21T01:36:48;97135.94;;;8.76;100.00
24306;BME280;12423;48.768;8.850;2023-03-21T01:38:53;97132.41;;;8.76;100.00
24306;BME280;12423;48.768;8.850;2023-03-21T01:40:54;97136.66;;;8.78;100.00
24306;BME280;12423;48.768;8.850;2023-03-21T01:43:19;97134.72;;;8.80;100.00
24306;BME280;12423;48.768;8.850;2023-03-21T01:48:18;97123.94;;;8.71;100.00
24306;BME280;12423;48.768;8.850;2023-03-21T01:50:24;97131.69;;;8.74;100.00
24306;BME280;12423;48.768;8.850;2023-03-21T01:52:37;97127.09;;;8.76;100.00
24306;BME280;12423;48.768;8.850;2023-03-21T01:54:49;97126.38;;;8.74;100.00
24306;BME280;12423;48.768;8.850;2023-03-21T01:56:54;97120.19;;;8.73;100.00
24306;BME280;12423;48.768;8.850;2023-03-21T01:59:17;97119.09;;;8.76;100.00
24306;BME280;12423;48.768;8.850;2023-03-21T02:01:40;97123.94;;;8.71;100.00
24306;BME280;12423;48.768;8.850;2023-03-21T02:03:46;97114.50;;;8.66;100.00
24306;BME280;12423;48.768;8.850;2023-03-21T02:06:26;97118.34;;;8.62;100.00
24306;BME280;12423;48.768;8.850;2023-03-21T02:08:36;97124.66;;;8.61;100.00
24306;BME280;12423;48.768;8.850;2023-03-21T02:10:45;97114.84;;;8.62;100.00
24306;BME280;12423;48.768;8.850;2023-03-21T02:12:57;97123.69;;;8.62;100.00
24306;BME280;12423;48.768;8.850;2023-03-21T02:15:10;97118.13;;;8.65;100.00
24306;BME280;12423;48.768;8.850;2023-03-21T02:17:33;97110.25;;;8.64;100.00
24306;BME280;12423;48.768;8.850;2023-03-21T02:22:57;97097.78;;;8.53;100.00
24306;BME280;12423;48.768;8.850;2023-03-21T02:27:14;97102.84;;;8.56;100.00
24306;BME280;12423;48.768;8.850;2023-03-21T02:30:19;97101.22;;;8.42;100.00
24306;BME280;12423;48.768;8.850;2023-03-21T02:34:40;97104.63;;;8.44;100.00
24306;BME280;12423;48.768;8.850;2023-03-21T02:42:04;97100.59;;;8.39;100.00
24306;BME280;12423;48.768;8.850;2023-03-21T02:44:26;97098.47;;;8.44;100.00
24306;BME280;12423;48.768;8.850;2023-03-21T02:46:37;97098.91;;;8.38;100.00
24306;BME280;12423;48.768;8.850;2023-03-21T02:50:55;97098.84;;;8.26;100.00
24306;BME280;12423;48.768;8.850;2023-03-21T02:52:59;97087.75;;;8.33;100.00
24306;BME280;12423;48.768;8.850;2023-03-21T02:55:08;97091.25;;;8.33;100.00
24306;BME280;12423;48.768;8.850;2023-03-21T02:57:19;97098.66;;;8.41;100.00
24306;BME280;12423;48.768;8.850;2023-03-21T02:59:22;97103.78;;;8.44;100.00
24306;BME280;12423;48.768;8.850;2023-03-21T03:01:26;97092.91;;;8.47;100.00
24306;BME280;12423;48.768;8.850;2023-03-21T03:03:28;97103.88;;;8.42;100.00
24306;BME280;12423;48.768;8.850;2023-03-21T03:05:33;97091.66;;;8.40;100.00
24306;BME280;12423;48.768;8.850;2023-03-21T03:07:50;97101.06;;;8.33;100.00
24306;BME280;12423;48.768;8.850;2023-03-21T03:17:24;97082.09;;;8.37;100.00
24306;BME280;12423;48.768;8.850;2023-03-21T03:19:34;97077.84;;;8.35;100.00
24306;BME280;12423;48.768;8.850;2023-03-21T03:21:51;97072.50;;;8.35;100.00
24306;BME280;12423;48.768;8.850;2023-03-21T03:24:17;97076.63;;;8.27;100.00
24306;BME280;12423;48.768;8.850;2023-03-21T03:26:26;97072.38;;;8.25;100.00
24306;BME280;12423;48.768;8.850;2023-03-21T03:28:35;97076.97;;;8.23;100.00
24306;BME280;12423;48.768;8.850;2023-03-21T03:30:43;97073.00;;;8.28;100.00
24306;BME280;12423;48.768;8.850;2023-03-21T03:32:53;97073.84;;;8.29;100.00
24306;BME280;12423;48.768;8.850;2023-03-21T03:34:56;97069.59;;;8.26;100.00
24306;BME280;12423;48.768;8.850;2023-03-21T03:37:04;97079.97;;;8.18;100.00
24306;BME280;12423;48.768;8.850;2023-03-21T03:39:11;97069.97;;;8.22;100.00
24306;BME280;12423;48.768;8.850;2023-03-21T03:41:20;97070.06;;;8.20;100.00
24306;BME280;12423;48.768;8.850;2023-03-21T03:43:33;97069.31;;;8.18;100.00
24306;BME280;12423;48.768;8.850;2023-03-21T03:45:51;97073.69;;;8.19;100.00
24306;BME280;12423;48.768;8.850;2023-03-21T03:52:33;97071.16;;;8.18;100.00
24306;BME280;12423;48.768;8.850;2023-03-21T03:54:44;97079.13;;;8.18;100.00
24306;BME280;12423;48.768;8.850;2023-03-21T03:56:46;97074.25;;;8.11;100.00
24306;BME280;12423;48.768;8.850;2023-03-21T03:58:48;97078.13;;;8.07;100.00
24306;BME280;12423;48.768;8.850;2023-03-21T04:00:53;97074.88;;;8.04;100.00
24306;BME280;12423;48.768;8.850;2023-03-21T04:02:55;97073.59;;;7.97;100.00
24306;BME280;12423;48.768;8.850;2023-03-21T04:04:59;97074.75;;;7.81;100.00
24306;BME280;12423;48.768;8.850;2023-03-21T04:07:01;97072.50;;;7.64;100.00
24306;BME280;12423;48.768;8.850;2023-03-21T04:09:03;97075.63;;;7.57;100.00
24306;BME280;12423;48.768;8.850;2023-03-21T04:11:05;97076.06;;;7.51;100.00
24306;BME280;12423;48.768;8.850;2023-03-21T04:13:11;97079.16;;;7.45;100.00
24306;BME280;12423;48.768;8.850;2023-03-21T04:15:34;97081.41;;;7.38;100.00
24306;BME280;12423;48.768;8.850;2023-03-21T04:17:43;97076.94;;;7.39;100.00
24306;BME280;12423;48.768;8.850;2023-03-21T04:19:46;97068.28;;;7.24;100.00
24306;BME280;12423;48.768;8.850;2023-03-21T04:21:47;97070.41;;;7.19;100.00
24306;BME280;12423;48.768;8.850;2023-03-21T04:23:50;97069.78;;;7.15;100.00
24306;BME280;12423;48.768;8.850;2023-03-21T04:25:55;97063.13;;;7.10;100.00
24306;BME280;12423;48.768;8.850;2023-03-21T04:27:56;97071.41;;;7.05;100.00
24306;BME280;12423;48.768;8.850;2023-03-21T04:30:17;97062.50;;;7.06;100.00
24306;BME280;12423;48.768;8.850;2023-03-21T04:32:26;97065.25;;;7.05;100.00
24306;BME280;12423;48.768;8.850;2023-03-21T04:34:39;97058.03;;;7.07;100.00
24306;BME280;12423;48.768;8.850;2023-03-21T04:36:41;97062.59;;;7.05;100.00
24306;BME280;12423;48.768;8.850;2023-03-21T04:38:50;97062.50;;;7.06;100.00
24306;BME280;12423;48.768;8.850;2023-03-21T04:40:51;97064.84;;;6.98;100.00
24306;BME280;12423;48.768;8.850;2023-03-21T04:42:52;97069.41;;;6.96;100.00
24306;BME280;12423;48.768;8.850;2023-03-21T04:44:53;97060.19;;;6.89;100.00
24306;BME280;12423;48.768;8.850;2023-03-21T04:46:54;97066.22;;;6.91;100.00
24306;BME280;12423;48.768;8.850;2023-03-21T04:48:55;97059.34;;;6.88;100.00
24306;BME280;12423;48.768;8.850;2023-03-21T04:50:56;97041.50;;;6.77;100.00
24306;BME280;12423;48.768;8.850;2023-03-21T04:52:57;97064.56;;;6.90;100.00
24306;BME280;12423;48.768;8.850;2023-03-21T04:54:58;97057.75;;;6.86;100.00
24306;BME280;12423;48.768;8.850;2023-03-21T04:56:59;97063.47;;;6.79;100.00
24306;BME280;12423;48.768;8.850;2023-03-21T04:59:07;97061.03;;;6.76;100.00
24306;BME280;12423;48.768;8.850;2023-03-21T05:01:08;97065.50;;;6.76;100.00
24306;BME280;12423;48.768;8.850;2023-03-21T05:03:09;97061.69;;;6.67;100.00
24306;BME280;12423;48.768;8.850;2023-03-21T05:05:10;97066.50;;;6.62;100.00
24306;BME280;12423;48.768;8.850;2023-03-21T05:07:11;97061.91;;;6.64;100.00
24306;BME280;12423;48.768;8.850;2023-03-21T05:09:12;97060.31;;;6.61;100.00
24306;BME280;12423;48.768;8.850;2023-03-21T05:11:13;97072.22;;;6.56;100.00
24306;BME280;12423;48.768;8.850;2023-03-21T05:13:15;97064.88;;;6.59;100.00
24306;BME280;12423;48.768;8.850;2023-03-21T05:15:16;97067.84;;;6.55;100.00
24306;BME280;12423;48.768;8.850;2023-03-21T05:17:17;97067.63;;;6.58;100.00
24306;BME280;12423;48.768;8.850;2023-03-21T05:19:26;97060.84;;;6.54;100.00
24306;BME280;12423;48.768;8.850;2023-03-21T05:21:34;97067.31;;;6.50;100.00
24306;BME280;12423;48.768;8.850;2023-03-21T05:23:44;97067.13;;;6.53;100.00
24306;BME280;12423;48.768;8.850;2023-03-21T05:25:45;97062.78;;;6.52;100.00
24306;BME280;12423;48.768;8.850;2023-03-21T05:27:55;97064.13;;;6.44;100.00
24306;BME280;12423;48.768;8.850;2023-03-21T05:32:07;97059.59;;;6.34;100.00
24306;BME280;12423;48.768;8.850;2023-03-21T05:34:08;97055.31;;;6.31;100.00
24306;BME280;12423;48.768;8.850;2023-03-21T05:36:11;97060.44;;;6.34;100.00
24306;BME280;12423;48.768;8.850;2023-03-21T05:38:13;97060.22;;;6.24;100.00
24306;BME280;12423;48.768;8.850;2023-03-21T05:40:23;97058.72;;;6.20;100.00
24306;BME280;12423;48.768;8.850;2023-03-21T05:42:24;97069.00;;;6.25;100.00
24306;BME280;12423;48.768;8.850;2023-03-21T05:44:25;97065.72;;;6.21;100.00
24306;BME280;12423;48.768;8.850;2023-03-21T05:46:27;97071.44;;;6.15;100.00
24306;BME280;12423;48.768;8.850;2023-03-21T05:48:28;97073.97;;;6.17;100.00
24306;BME280;12423;48.768;8.850;2023-03-21T05:50:41;97070.06;;;6.22;100.00
24306;BME280;12423;48.768;8.850;2023-03-21T05:52:50;97076.22;;;6.23;100.00
24306;BME280;12423;48.768;8.850;2023-03-21T05:54:51;97079.50;;;6.26;100.00
24306;BME280;12423;48.768;8.850;2023-03-21T05:56:55;97072.00;;;6.20;100.00
24306;BME280;12423;48.768;8.850;2023-03-21T05:59:16;97068.06;;;6.26;100.00
24306;BME280;12423;48.768;8.850;2023-03-21T06:01:19;97080.50;;;6.25;100.00
24306;BME280;12423;48.768;8.850;2023-03-21T06:03:28;97078.44;;;6.16;100.00
24306;BME280;12423;48.768;8.850;2023-03-21T06:05:35;97088.84;;;6.19;100.00
24306;BME280;12423;48.768;8.850;2023-03-21T06:07:36;97083.66;;;6.18;100.00
24306;BME280;12423;48.768;8.850;2023-03-21T06:09:37;97077.41;;;6.19;100.00
24306;BME280;12423;48.768;8.850;2023-03-21T06:11:43;97080.34;;;6.14;100.00
24306;BME280;12423;48.768;8.850;2023-03-21T06:14:15;97081.44;;;6.24;100.00
24306;BME280;12423;48.768;8.850;2023-03-21T06:16:18;97070.50;;;6.29;100.00
24306;BME280;12423;48.768;8.850;2023-03-21T06:18:19;97077.72;;;6.27;100.00
24306;BME280;12423;48.768;8.850;2023-03-21T06:20:41;97078.47;;;6.29;100.00
24306;BME280;12423;48.768;8.850;2023-03-21T06:22:46;97065.00;;;6.32;100.00
24306;BME280;12423;48.768;8.850;2023-03-21T06:24:47;97059.78;;;6.31;100.00
24306;BME280;12423;48.768;8.850;2023-03-21T06:26:51;97059.69;;;6.32;100.00
24306;BME280;12423;48.768;8.850;2023-03-21T06:28:52;97065.72;;;6.34;100.00
24306;BME280;12423;48.768;8.850;2023-03-21T06:30:53;97063.81;;;6.36;100.00
24306;BME280;12423;48.768;8.850;2023-03-21T06:32:58;97064.56;;;6.38;100.00
24306;BME280;12423;48.768;8.850;2023-03-21T06:34:59;97070.19;;;6.46;100.00
24306;BME280;12423;48.768;8.850;2023-03-21T06:37:00;97067.88;;;6.42;100.00
24306;BME280;12423;48.768;8.850;2023-03-21T06:39:05;97068.19;;;6.50;100.00
24306;BME280;12423;48.768;8.850;2023-03-21T06:41:12;97070.28;;;6.58;100.00
24306;BME280;12423;48.768;8.850;2023-03-21T06:43:18;97068.06;;;6.64;100.00
24306;BME280;12423;48.768;8.850;2023-03-21T06:45:20;97072.44;;;6.66;100.00
24306;BME280;12423;48.768;8.850;2023-03-21T06:47:21;97069.00;;;6.76;100.00
24306;BME280;12423;48.768;8.850;2023-03-21T06:49:23;97069.56;;;6.81;100.00
24306;BME280;12423;48.768;8.850;2023-03-21T06:51:24;97064.25;;;6.81;100.00
24306;BME280;12423;48.768;8.850;2023-03-21T06:53:48;97063.78;;;6.88;100.00
24306;BME280;12423;48.768;8.850;2023-03-21T06:55:58;97066.13;;;6.92;100.00
24306;BME280;12423;48.768;8.850;2023-03-21T06:57:59;97062.06;;;6.99;100.00
24306;BME280;12423;48.768;8.850;2023-03-21T07:00:02;97063.44;;;7.05;100.00
24306;BME280;12423;48.768;8.850;2023-03-21T07:02:05;97061.41;;;7.09;100.00
24306;BME280;12423;48.768;8.850;2023-03-21T07:04:11;97062.13;;;7.24;100.00
24306;BME280;12423;48.768;8.850;2023-03-21T07:06:13;97061.69;;;7.30;100.00
24306;BME280;12423;48.768;8.850;2023-03-21T07:08:14;97057.50;;;7.38;100.00
24306;BME280;12423;48.768;8.850;2023-03-21T07:10:18;97050.03;;;7.44;100.00
24306;BME280;12423;48.768;8.850;2023-03-21T07:12:35;97054.81;;;7.51;100.00
24306;BME280;12423;48.768;8.850;2023-03-21T07:14:57;97055.19;;;7.58;100.00
24306;BME280;12423;48.768;8.850;2023-03-21T07:16:58;97055.81;;;7.62;100.00
24306;BME280;12423;48.768;8.850;2023-03-21T07:18:59;97057.56;;;7.74;100.00
24306;BME280;12423;48.768;8.850;2023-03-21T07:21:01;97062.94;;;7.85;100.00
24306;BME280;12423;48.768;8.850;2023-03-21T07:23:02;97058.84;;;7.92;100.00
24306;BME280;12423;48.768;8.850;2023-03-21T07:25:04;97059.75;;;8.04;100.00
24306;BME280;12423;48.768;8.850;2023-03-21T07:27:07;97057.94;;;8.16;100.00
24306;BME280;12423;48.768;8.850;2023-03-21T07:29:08;97053.16;;;8.33;100.00
24306;BME280;12423;48.768;8.850;2023-03-21T07:31:14;97057.59;;;8.45;100.00
24306;BME280;12423;48.768;8.850;2023-03-21T07:33:16;97054.69;;;8.59;100.00
24306;BME280;12423;48.768;8.850;2023-03-21T07:35:17;97057.13;;;8.74;100.00
24306;BME280;12423;48.768;8.850;2023-03-21T07:37:18;97052.28;;;8.90;100.00
24306;BME280;12423;48.768;8.850;2023-03-21T07:39:19;97060.28;;;9.01;100.00
24306;BME280;12423;48.768;8.850;2023-03-21T07:41:20;97049.97;;;9.08;100.00
24306;BME280;12423;48.768;8.850;2023-03-21T07:43:24;97052.38;;;9.22;100.00
24306;BME280;12423;48.768;8.850;2023-03-21T07:45:26;97053.34;;;9.33;100.00
24306;BME280;12423;48.768;8.850;2023-03-21T07:47:27;97043.38;;;9.35;100.00
24306;BME280;12423;48.768;8.850;2023-03-21T07:49:29;97042.53;;;9.34;100.00
24306;BME280;12423;48.768;8.850;2023-03-21T07:51:30;97050.31;;;9.37;100.00
24306;BME280;12423;48.768;8.850;2023-03-21T07:53:31;97044.31;;;9.45;100.00
24306;BME280;12423;48.768;8.850;2023-03-21T07:55:32;97058.75;;;9.54;100.00
24306;BME280;12423;48.768;8.850;2023-03-21T07:57:34;97051.69;;;9.64;100.00
24306;BME280;12423;48.768;8.850;2023-03-21T07:59:36;97045.59;;;9.73;100.00
24306;BME280;12423;48.768;8.850;2023-03-21T08:01:37;97058.25;;;9.92;100.00
24306;BME280;12423;48.768;8.850;2023-03-21T08:03:38;97049.59;;;10.00;100.00
24306;BME280;12423;48.768;8.850;2023-03-21T08:05:39;97056.56;;;10.12;100.00
24306;BME280;12423;48.768;8.850;2023-03-21T08:07:40;97048.00;;;10.30;100.00
24306;BME280;12423;48.768;8.850;2023-03-21T08:09:42;97052.06;;;10.45;100.00
24306;BME280;12423;48.768;8.850;2023-03-21T08:11:43;97051.03;;;10.58;100.00
24306;BME280;12423;48.768;8.850;2023-03-21T08:13:44;97046.97;;;10.63;100.00
24306;BME280;12423;48.768;8.850;2023-03-21T08:15:45;97052.81;;;10.78;100.00
24306;BME280;12423;48.768;8.850;2023-03-21T08:17:46;97047.09;;;10.93;100.00
24306;BME280;12423;48.768;8.850;2023-03-21T08:19:47;97046.09;;;10.94;100.00
24306;BME280;12423;48.768;8.850;2023-03-21T08:21:48;97050.66;;;11.03;100.00
24306;BME280;12423;48.768;8.850;2023-03-21T08:23:51;97042.09;;;11.09;100.00
24306;BME280;12423;48.768;8.850;2023-03-21T08:25:53;97046.91;;;11.15;100.00
24306;BME280;12423;48.768;8.850;2023-03-21T08:27:54;97046.53;;;11.30;100.00
24306;BME280;12423;48.768;8.850;2023-03-21T08:29:56;97038.34;;;11.21;100.00
24306;BME280;12423;48.768;8.850;2023-03-21T08:31:57;97030.47;;;11.30;100.00
24306;BME280;12423;48.768;8.850;2023-03-21T08:33:58;97032.50;;;11.47;100.00
24306;BME280;12423;48.768;8.850;2023-03-21T08:36:00;97031.78;;;11.55;100.00
24306;BME280;12423;48.768;8.850;2023-03-21T08:38:02;97026.31;;;11.56;98.86
24306;BME280;12423;48.768;8.850;2023-03-21T08:40:04;97029.13;;;11.74;95.87
24306;BME280;12423;48.768;8.850;2023-03-21T08:42:08;97022.53;;;11.88;92.94
24306;BME280;12423;48.768;8.850;2023-03-21T08:44:09;97023.00;;;11.93;93.70
24306;BME280;12423;48.768;8.850;2023-03-21T08:46:10;97025.81;;;12.02;89.68
24306;BME280;12423;48.768;8.850;2023-03-21T08:48:11;97019.91;;;12.08;89.63
24306;BME280;12423;48.768;8.850;2023-03-21T08:50:15;97023.00;;;12.13;88.39
24306;BME280;12423;48.768;8.850;2023-03-21T08:52:17;97024.53;;;12.15;87.10
24306;BME280;12423;48.768;8.850;2023-03-21T08:54:21;97024.53;;;12.06;83.46
24306;BME280;12423;48.768;8.850;2023-03-21T08:56:22;97023.84;;;12.04;82.34
24306;BME280;12423;48.768;8.850;2023-03-21T08:58:23;97019.16;;;12.15;83.75
24306;BME280;12423;48.768;8.850;2023-03-21T09:00:24;97025.66;;;12.32;84.74
24306;BME280;12423;48.768;8.850;2023-03-21T09:02:25;97018.59;;;12.31;83.51
24306;BME280;12423;48.768;8.850;2023-03-21T09:04:26;97006.72;;;12.44;82.88
24306;BME280;12423;48.768;8.850;2023-03-21T09:06:27;97013.19;;;12.51;82.07
24306;BME280;12423;48.768;8.850;2023-03-21T09:08:29;97009.06;;;12.66;81.42
24306;BME280;12423;48.768;8.850;2023-03-21T09:10:30;97012.66;;;12.85;80.38
24306;BME280;12423;48.768;8.850;2023-03-21T09:12:32;97005.47;;;13.13;80.55
24306;BME280;12423;48.768;8.850;2023-03-21T09:14:33;97003.13;;;13.28;80.76
24306;BME280;12423;48.768;8.850;2023-03-21T09:16:35;97008.31;;;13.39;79.47
24306;BME280;12423;48.768;8.850;2023-03-21T09:18:36;97011.63;;;13.33;78.22
24306;BME280;12423;48.768;8.850;2023-03-21T09:20:48;97005.28;;;13.52;79.93
24306;BME280;12423;48.768;8.850;2023-03-21T09:22:50;97002.91;;;13.67;80.38
24306;BME280;12423;48.768;8.850;2023-03-21T09:24:54;97013.50;;;13.87;80.24
24306;BME280;12423;48.768;8.850;2023-03-21T09:26:55;97009.22;;;13.94;80.33
24306;BME280;12423;48.768;8.850;2023-03-21T09:28:56;97009.50;;;13.91;77.33
24306;BME280;12423;48.768;8.850;2023-03-21T09:30:58;97008.44;;;13.83;76.18
24306;BME280;12423;48.768;8.850;2023-03-21T09:33:03;97006.59;;;14.02;78.10
24306;BME280;12423;48.768;8.850;2023-03-21T09:35:08;97008.38;;;14.11;78.48
24306;BME280;12423;48.768;8.850;2023-03-21T09:37:11;97003.91;;;14.20;80.23
24306;BME280;12423;48.768;8.850;2023-03-21T09:39:13;97011.25;;;14.36;80.50
24306;BME280;12423;48.768;8.850;2023-03-21T09:44:04;97005.84;;;14.54;78.60
24306;BME280;12423;48.768;8.850;2023-03-21T09:46:42;97006.97;;;14.51;77.73
24306;BME280;12423;48.768;8.850;2023-03-21T09:49:01;97002.69;;;14.59;76.48
24306;BME280;12423;48.768;8.850;2023-03-21T09:51:12;97002.22;;;14.63;76.85
24306;BME280;12423;48.768;8.850;2023-03-21T09:53:25;96999.03;;;14.68;73.77
24306;BME280;12423;48.768;8.850;2023-03-21T09:55:30;97004.38;;;14.86;76.45
24306;BME280;12423;48.768;8.850;2023-03-21T09:57:40;97000.75;;;15.03;76.30
24306;BME280;12423;48.768;8.850;2023-03-21T09:59:43;96998.75;;;15.05;75.22
24306;BME280;12423;48.768;8.850;2023-03-21T10:01:44;96989.25;;;14.93;74.21
24306;BME280;12423;48.768;8.850;2023-03-21T10:03:48;96989.22;;;14.77;75.18
24306;BME280;12423;48.768;8.850;2023-03-21T10:05:54;96994.44;;;14.86;74.92
24306;BME280;12423;48.768;8.850;2023-03-21T10:08:19;96989.22;;;14.59;73.64
24306;BME280;12423;48.768;8.850;2023-03-21T10:10:31;96990.00;;;14.51;76.23
24306;BME280;12423;48.768;8.850;2023-03-21T10:12:34;96981.50;;;14.82;76.53
24306;BME280;12423;48.768;8.850;2023-03-21T10:14:43;96987.22;;;14.87;74.54
24306;BME280;12423;48.768;8.850;2023-03-21T10:16:51;96987.03;;;14.80;74.26
24306;BME280;12423;48.768;8.850;2023-03-21T10:18:59;96986.97;;;14.98;74.39
24306;BME280;12423;48.768;8.850;2023-03-21T10:21:04;96986.31;;;15.13;73.42
24306;BME280;12423;48.768;8.850;2023-03-21T10:23:07;96986.84;;;15.16;73.10
24306;BME280;12423;48.768;8.850;2023-03-21T10:25:16;96986.28;;;15.04;73.04
24306;BME280;12423;48.768;8.850;2023-03-21T10:27:18;96979.00;;;14.88;71.75
24306;BME280;12423;48.768;8.850;2023-03-21T10:29:26;96982.81;;;14.78;74.77
24306;BME280;12423;48.768;8.850;2023-03-21T10:31:29;96984.16;;;14.73;71.68
24306;BME280;12423;48.768;8.850;2023-03-21T10:33:34;96979.66;;;14.82;71.79
24306;BME280;12423;48.768;8.850;2023-03-21T10:35:36;96976.91;;;14.74;69.62
24306;BME280;12423;48.768;8.850;2023-03-21T10:37:39;96974.19;;;14.66;69.41
24306;BME280;12423;48.768;8.850;2023-03-21T10:39:43;96980.84;;;14.88;71.35
24306;BME280;12423;48.768;8.850;2023-03-21T10:41:44;96984.22;;;14.90;72.95
24306;BME280;12423;48.768;8.850;2023-03-21T10:43:46;96985.91;;;14.91;73.93
24306;BME280;12423;48.768;8.850;2023-03-21T10:45:54;96976.25;;;14.72;71.55
24306;BME280;12423;48.768;8.850;2023-03-21T10:47:55;96979.19;;;14.61;69.97
24306;BME280;12423;48.768;8.850;2023-03-21T10:50:07;96973.56;;;14.28;68.79
24306;BME280;12423;48.768;8.850;2023-03-21T10:52:10;96980.69;;;14.37;69.40
24306;BME280;12423;48.768;8.850;2023-03-21T10:54:15;96980.75;;;14.45;69.22
24306;BME280;12423;48.768;8.850;2023-03-21T10:56:21;96981.94;;;14.25;68.07
24306;BME280;12423;48.768;8.850;2023-03-21T10:58:26;96985.56;;;14.15;68.33
24306;BME280;12423;48.768;8.850;2023-03-21T11:00:33;96981.63;;;14.28;69.32
24306;BME280;12423;48.768;8.850;2023-03-21T11:02:36;96977.50;;;14.60;69.97
24306;BME280;12423;48.768;8.850;2023-03-21T11:04:37;96974.81;;;14.42;68.24
24306;BME280;12423;48.768;8.850;2023-03-21T11:06:40;96974.94;;;14.32;68.25
24306;BME280;12423;48.768;8.850;2023-03-21T11:08:46;96971.88;;;14.27;67.21
24306;BME280;12423;48.768;8.850;2023-03-21T11:12:55;96967.03;;;14.56;69.35
24306;BME280;12423;48.768;8.850;2023-03-21T11:15:24;96968.69;;;14.05;67.24
24306;BME280;12423;48.768;8.850;2023-03-21T11:17:30;96961.78;;;14.21;67.74
24306;BME280;12423;48.768;8.850;2023-03-21T11:19:34;96964.72;;;14.35;67.88
24306;BME280;12423;48.768;8.850;2023-03-21T11:21:36;96959.59;;;14.24;67.16
24306;BME280;12423;48.768;8.850;2023-03-21T11:23:41;96960.31;;;14.08;67.50
24306;BME280;12423;48.768;8.850;2023-03-21T11:25:48;96959.81;;;14.31;67.75
24306;BME280;12423;48.768;8.850;2023-03-21T11:27:53;96956.41;;;14.21;68.33
24306;BME280;12423;48.768;8.850;2023-03-21T11:29:56;96957.97;;;14.31;68.05
24306;BME280;12423;48.768;8.850;2023-03-21T11:32:25;96956.84;;;14.60;70.65
24306;BME280;12423;48.768;8.850;2023-03-21T11:34:32;96953.19;;;14.69;69.74
24306;BME280;12423;48.768;8.850;2023-03-21T11:36:35;96955.44;;;14.82;67.58
24306;BME280;12423;48.768;8.850;2023-03-21T11:38:40;96950.66;;;14.68;66.01
24306;BME280;12423;48.768;8.850;2023-03-21T11:40:51;96947.53;;;14.81;66.58